Aeroporto :
LOGIN :

Iscrizione | Disclaimer

   EN    FR    IT 

 










Sommario :    VFR   VFR Marginale   IFR   IFR Intensivo   IFR Molto Intensivo
Visibilità : 
Base nubi : 
>= 8 km
>= 3000ft
5 / 8 km
1000 / 3000 ft
1500m / 5 km
500 / 1000 ft
800 / 1500m
200 / 500 ft
< 800m
< 200 ft
Simboli :   Temporali  Nebbia  Neve Forte  Precipitazioni Forti  Vento > 20 kt
SIGMETs :   Varie  Temporali  Ghiacco  Turbolenza  Onda orograficha  Ceneri Vulcaniche







- Altitudine del aeroporto : 390 ft
- Codice IATA : NQY
- Carte del aeroporto


EGHQ - Newquay

ULTIMO METAR :
  • 231950Z 13012KT CAVOK 16/13 Q1020

METARs OBSOLETI :
  • 231920Z 12013KT CAVOK 17/12 Q1020
  • 231850Z 13013KT CAVOK 17/13 Q1020
  • 231820Z 14014KT CAVOK 18/13 Q1020
  • 231750Z 14013KT CAVOK 19/13 Q1021
  • 231720Z 14014KT CAVOK 20/13 Q1021

TAF TAF EGHQ
Valido dal 23 a 18 ore il 23 a 21 ore UTC


231702Z 2318/2321 14014KT 9999 FEW025
TEMPO 2318/2321 17017G27KT
Nessun NOTAM noto per questo aeroporto.



MetMap, La meteo Aeronautica in un colpo d'occhio ! - Copyright ORBIFLY Dicembre 2007 - Disclaimer

ORBIFLY MET'MAP TEAM :

Programmazione e sviluppo : Alexandra Zaïnal
Concezione e sviluppo : Baudouin d'Aumeries
Co-Programmazione e sviluppo : Marc-Olivier Méhu
Supporto tecnico e logistico : Manuel Goepfert
Aiuto per la traduzione : Arnaldo La Scala

Contatto : metmap@orbifly.com




FONTI E CREDITI :

   NOAA